createdAt,value
2023-02-11T00:02:59.805Z,33.80
2023-02-11T00:06:03.766Z,32.77
2023-02-11T00:09:05.949Z,32.50
2023-02-11T00:12:07.606Z,31.90
2023-02-11T00:15:10.249Z,34.25
2023-02-11T00:18:11.965Z,33.83
2023-02-11T00:21:17.331Z,31.03
2023-02-11T00:24:18.965Z,33.50
2023-02-11T00:27:20.606Z,35.80
2023-02-11T00:30:22.707Z,34.63
2023-02-11T00:33:24.551Z,34.90
2023-02-11T00:36:28.981Z,34.20
2023-02-11T00:39:31.030Z,31.80
2023-02-11T00:42:32.692Z,33.90
2023-02-11T00:45:34.338Z,36.42
2023-02-11T00:48:36.535Z,32.35
2023-02-11T00:51:38.155Z,30.23
2023-02-11T00:54:40.350Z,32.20
2023-02-11T00:57:43.251Z,30.05
2023-02-11T01:00:45.096Z,30.15
2023-02-11T01:03:46.940Z,30.45
2023-02-11T01:06:48.635Z,39.77
2023-02-11T01:09:50.271Z,34.38
2023-02-11T01:12:51.876Z,31.27
2023-02-11T01:15:54.375Z,31.98
2023-02-11T01:18:56.182Z,30.05
2023-02-11T01:21:57.837Z,31.80
2023-02-11T01:24:59.446Z,33.03
2023-02-11T01:28:01.099Z,33.35
2023-02-11T01:31:03.762Z,31.45
2023-02-11T01:34:05.413Z,29.77
2023-02-11T01:37:07.131Z,33.43
2023-02-11T01:40:14.861Z,32.00
2023-02-11T01:43:16.716Z,32.25
2023-02-11T01:46:37.346Z,32.55
2023-02-11T01:49:42.521Z,30.42
2023-02-11T01:52:47.211Z,31.23
2023-02-11T01:56:07.288Z,32.10
2023-02-11T01:59:18.373Z,31.77
2023-02-11T02:02:26.433Z,30.15
2023-02-11T02:05:43.038Z,29.90
2023-02-11T02:09:02.295Z,31.37
2023-02-11T02:12:04.072Z,30.35
2023-02-11T02:15:36.356Z,29.77
2023-02-11T02:19:01.948Z,33.53
2023-02-11T02:22:33.623Z,32.50
2023-02-11T02:26:14.838Z,29.93
2023-02-11T02:29:45.842Z,33.60
2023-02-11T02:33:20.346Z,34.13
2023-02-11T02:36:34.673Z,36.15
2023-02-11T02:39:37.397Z,35.97
2023-02-11T02:42:41.143Z,31.80
2023-02-11T02:45:42.876Z,30.17
2023-02-11T02:48:46.206Z,30.75
2023-02-11T02:52:17.102Z,32.17
2023-02-11T02:55:35.324Z,33.35
2023-02-11T02:59:15.026Z,32.43
2023-02-11T03:02:33.688Z,30.58
2023-02-11T03:06:04.316Z,30.75
2023-02-11T03:09:18.564Z,31.95
2023-02-11T03:12:22.115Z,31.45
2023-02-11T03:15:27.021Z,30.43
2023-02-11T03:18:31.372Z,31.13
2023-02-11T03:21:36.345Z,33.10
2023-02-11T03:24:39.651Z,31.00
2023-02-11T03:27:50.904Z,31.23
2023-02-11T03:31:13.542Z,32.07
2023-02-11T03:34:21.700Z,35.90
2023-02-11T03:37:33.509Z,32.65
2023-02-11T03:40:45.752Z,32.85
2023-02-11T03:43:54.362Z,30.63
2023-02-11T03:46:56.466Z,32.03
2023-02-11T03:49:59.422Z,31.42
2023-02-11T03:53:02.568Z,30.60
2023-02-11T03:56:08.802Z,31.35
2023-02-11T03:59:11.468Z,31.92
2023-02-11T04:02:13.203Z,28.00
2023-02-11T04:05:16.355Z,29.52
2023-02-11T04:08:17.931Z,30.80
2023-02-11T04:11:19.561Z,30.05
2023-02-11T04:14:21.136Z,28.02
2023-02-11T04:17:23.060Z,28.97
2023-02-11T04:20:24.806Z,30.17
2023-02-11T04:23:26.528Z,30.77
2023-02-11T04:26:28.119Z,30.35
2023-02-11T04:29:29.814Z,31.95
2023-02-11T04:32:31.576Z,30.57
2023-02-11T04:35:33.321Z,29.48
2023-02-11T04:38:35.023Z,30.67
2023-02-11T04:41:36.712Z,30.85
2023-02-11T04:44:38.810Z,31.02
2023-02-11T04:47:40.480Z,31.17
2023-02-11T04:50:42.125Z,31.77
2023-02-11T04:53:43.825Z,29.58
2023-02-11T04:56:45.636Z,29.00
2023-02-11T04:59:48.161Z,32.80
2023-02-11T05:02:49.797Z,27.30
2023-02-11T05:05:51.745Z,29.52
2023-02-11T05:08:53.541Z,30.13
2023-02-11T05:11:55.495Z,29.27
2023-02-11T05:14:57.192Z,30.52
2023-02-11T05:17:58.876Z,28.90
2023-02-11T05:21:06.406Z,27.23
2023-02-11T05:24:08.304Z,34.05
2023-02-11T05:27:09.904Z,28.50
2023-02-11T05:30:12.111Z,33.35
2023-02-11T05:33:13.722Z,25.53
2023-02-11T05:36:16.807Z,32.53
2023-02-11T05:39:18.437Z,29.55
2023-02-11T05:42:20.061Z,28.70
2023-02-11T05:45:21.655Z,29.27
2023-02-11T05:48:23.716Z,29.13
2023-02-11T05:51:25.413Z,28.35
2023-02-11T05:54:27.129Z,31.95
2023-02-11T05:57:28.814Z,31.95
2023-02-11T06:00:30.521Z,29.30
2023-02-11T06:03:32.206Z,31.70
2023-02-11T06:06:33.984Z,33.28
2023-02-11T06:09:36.566Z,29.40
2023-02-11T06:12:38.402Z,30.75
2023-02-11T06:15:40.094Z,30.05
2023-02-11T06:18:41.752Z,28.80
2023-02-11T06:21:44.639Z,29.77
2023-02-11T06:25:00.792Z,31.65
2023-02-11T06:28:04.145Z,32.80
2023-02-11T06:31:07.245Z,32.10
2023-02-11T06:34:10.415Z,30.83
2023-02-11T06:37:12.177Z,28.55
2023-02-11T06:40:13.886Z,32.80
2023-02-11T06:43:16.452Z,31.40
2023-02-11T06:46:18.130Z,30.42
2023-02-11T06:49:19.786Z,28.43
2023-02-11T06:52:21.437Z,27.48
2023-02-11T06:55:23.142Z,28.13
2023-02-11T06:58:24.774Z,29.65
2023-02-11T07:01:27.971Z,31.60
2023-02-11T07:04:29.718Z,34.73
2023-02-11T07:07:34.116Z,29.60
2023-02-11T07:10:35.980Z,30.70
2023-02-11T07:13:37.631Z,32.35
2023-02-11T07:16:39.548Z,29.13
2023-02-11T07:19:41.394Z,29.17
2023-02-11T07:22:43.115Z,32.47
2023-02-11T07:25:44.766Z,29.10
2023-02-11T07:28:46.846Z,28.52
2023-02-11T07:31:48.737Z,33.63
2023-02-11T07:34:50.617Z,30.43
2023-02-11T07:37:52.369Z,33.47
2023-02-11T07:40:54.077Z,31.05
2023-02-11T07:43:56.108Z,30.42
2023-02-11T07:46:57.883Z,32.28
2023-02-11T07:49:59.598Z,32.23
2023-02-11T07:53:01.921Z,31.73
2023-02-11T07:56:04.930Z,33.97
2023-02-11T07:59:07.174Z,33.13
2023-02-11T08:02:09.610Z,34.30
2023-02-11T08:05:11.444Z,31.47
2023-02-11T08:08:13.025Z,35.88
2023-02-11T08:11:23.735Z,35.80
2023-02-11T08:14:27.266Z,37.55
2023-02-11T08:17:28.978Z,35.45
2023-02-11T08:20:30.575Z,32.70
2023-02-11T08:23:32.165Z,34.08
2023-02-11T08:26:35.045Z,38.83
2023-02-11T08:29:36.651Z,39.00
2023-02-11T08:32:39.556Z,39.65
2023-02-11T08:35:41.426Z,34.70
2023-02-11T08:38:43.677Z,34.70
2023-02-11T08:41:47.148Z,35.67
2023-02-11T08:44:48.753Z,36.83
2023-02-11T08:47:51.070Z,37.97
2023-02-11T08:50:52.785Z,36.60
2023-02-11T08:53:57.551Z,35.78
2023-02-11T08:57:01.815Z,37.05
2023-02-11T09:00:04.584Z,36.03
2023-02-11T09:03:06.382Z,35.65
2023-02-11T09:06:10.244Z,37.73
2023-02-11T09:09:14.795Z,37.10
2023-02-11T09:12:16.489Z,41.28
2023-02-11T09:15:18.242Z,36.80
2023-02-11T09:18:19.887Z,39.15
2023-02-11T09:21:21.647Z,35.80
2023-02-11T09:24:23.258Z,36.03
2023-02-11T09:27:24.878Z,36.15
2023-02-11T09:30:26.693Z,37.25
2023-02-11T09:33:28.400Z,37.25
2023-02-11T09:36:37.412Z,36.73
2023-02-11T09:39:39.073Z,37.53
2023-02-11T09:42:45.710Z,34.92
2023-02-11T09:45:48.111Z,35.50
2023-02-11T09:48:53.222Z,33.17
2023-02-11T09:52:08.315Z,37.23
2023-02-11T09:55:27.647Z,37.67
2023-02-11T09:58:39.117Z,35.88
2023-02-11T10:01:58.953Z,39.88
2023-02-11T10:05:34.692Z,37.08
2023-02-11T10:08:57.727Z,38.30
2023-02-11T10:12:30.534Z,39.17
2023-02-11T10:15:47.542Z,37.03
2023-02-11T10:19:09.749Z,36.05
2023-02-11T10:22:19.498Z,41.00
2023-02-11T10:25:26.296Z,34.37
2023-02-11T10:28:34.204Z,36.67
2023-02-11T10:31:43.627Z,37.83
2023-02-11T10:34:45.444Z,38.63
2023-02-11T10:37:47.903Z,39.83
2023-02-11T10:40:52.420Z,38.27
2023-02-11T10:43:54.426Z,36.85
2023-02-11T10:46:57.527Z,37.45
2023-02-11T10:50:03.631Z,35.10
2023-02-11T10:53:20.941Z,35.17
2023-02-11T10:56:27.803Z,40.63
2023-02-11T10:59:40.954Z,38.40
2023-02-11T11:02:44.552Z,37.17
2023-02-11T11:05:50.366Z,37.75
2023-02-11T11:08:52.050Z,34.95
2023-02-11T11:11:53.935Z,40.80
2023-02-11T11:15:01.731Z,38.63
2023-02-11T11:18:22.037Z,42.95
2023-02-11T11:21:52.150Z,41.10
2023-02-11T11:24:54.392Z,32.28
2023-02-11T11:27:58.478Z,32.30
2023-02-11T11:31:00.951Z,29.40
2023-02-11T11:34:27.547Z,33.35
2023-02-11T11:37:34.958Z,32.03
2023-02-11T11:40:36.982Z,31.08
2023-02-11T11:43:38.701Z,31.77
2023-02-11T11:46:43.099Z,30.85
2023-02-11T11:50:03.370Z,30.65
2023-02-11T11:53:16.372Z,31.92
2023-02-11T11:56:24.624Z,31.33
2023-02-11T11:59:27.885Z,29.33
2023-02-11T12:02:48.414Z,28.25
2023-02-11T12:06:17.769Z,27.65
2023-02-11T12:09:34.743Z,28.08
2023-02-11T12:13:00.763Z,31.48
2023-02-11T12:16:33.793Z,24.33
2023-02-11T12:19:47.344Z,27.55
2023-02-11T12:22:54.966Z,26.48
2023-02-11T12:26:05.863Z,25.70
2023-02-11T12:29:41.632Z,25.50
2023-02-11T12:33:04.901Z,26.70
2023-02-11T12:36:43.470Z,20.13
2023-02-11T12:40:11.597Z,23.33
2023-02-11T12:43:16.602Z,23.73
2023-02-11T12:46:54.416Z,19.67
2023-02-11T12:50:14.419Z,22.03
2023-02-11T12:53:31.042Z,21.15
2023-02-11T12:56:39.051Z,21.27
2023-02-11T12:59:59.257Z,21.15
2023-02-11T13:03:05.871Z,23.50
2023-02-11T13:06:11.765Z,19.97
2023-02-11T13:09:22.569Z,20.80
2023-02-11T13:12:43.717Z,24.20
2023-02-11T13:16:07.702Z,23.60
2023-02-11T13:19:13.342Z,21.88
2023-02-11T13:22:17.987Z,20.60
2023-02-11T13:25:51.519Z,20.30
2023-02-11T13:29:26.467Z,21.83
2023-02-11T13:32:48.092Z,24.38
2023-02-11T13:35:58.829Z,21.55
2023-02-11T13:39:04.420Z,22.20
2023-02-11T13:42:06.140Z,20.02
2023-02-11T13:45:30.239Z,21.55
2023-02-11T13:48:35.941Z,22.02
2023-02-11T13:51:42.848Z,20.02
2023-02-11T13:54:50.737Z,21.33
2023-02-11T13:58:07.718Z,20.23
2023-02-11T14:01:09.452Z,21.55
2023-02-11T14:04:44.290Z,21.95
2023-02-11T14:08:26.010Z,23.20
2023-02-11T14:11:40.660Z,21.20
2023-02-11T14:15:07.747Z,22.00
2023-02-11T14:18:52.144Z,23.33
2023-02-11T14:22:01.947Z,26.52
2023-02-11T14:25:05.088Z,23.42
2023-02-11T14:28:18.824Z,22.50
2023-02-11T14:31:40.133Z,23.65
2023-02-11T14:34:57.120Z,23.77
2023-02-11T14:38:22.720Z,21.00
2023-02-11T14:41:31.920Z,22.20
2023-02-11T14:44:34.270Z,25.37
2023-02-11T14:47:45.437Z,27.05
2023-02-11T14:50:58.773Z,33.35
2023-02-11T14:54:15.308Z,24.40
2023-02-11T14:57:19.296Z,23.67
2023-02-11T15:00:23.290Z,26.10
2023-02-11T15:03:37.104Z,25.08
2023-02-11T15:06:47.417Z,27.40
2023-02-11T15:09:54.241Z,27.13
2023-02-11T15:12:57.566Z,27.02
2023-02-11T15:16:05.043Z,25.63
2023-02-11T15:19:07.607Z,23.58
2023-02-11T15:22:18.820Z,24.38
2023-02-11T15:25:21.378Z,28.75
2023-02-11T15:28:24.546Z,25.70
2023-02-11T15:31:27.986Z,26.57
2023-02-11T15:34:29.764Z,25.25
2023-02-11T15:37:31.405Z,27.42
2023-02-11T15:40:35.720Z,23.52
2023-02-11T15:43:55.471Z,28.10
2023-02-11T15:46:57.654Z,28.80
2023-02-11T15:49:59.756Z,28.98
2023-02-11T15:53:12.029Z,28.42
2023-02-11T15:56:37.535Z,31.30
2023-02-11T15:59:41.803Z,33.20
2023-02-11T16:02:46.709Z,30.67
2023-02-11T16:05:48.755Z,31.77
2023-02-11T16:09:08.637Z,30.95
2023-02-11T16:12:29.332Z,31.83
2023-02-11T16:15:33.921Z,31.15
2023-02-11T16:18:40.077Z,31.03
2023-02-11T16:21:45.356Z,29.75
2023-02-11T16:24:49.650Z,28.77
2023-02-11T16:27:53.445Z,27.55
2023-02-11T16:30:56.144Z,30.00
2023-02-11T16:33:57.899Z,30.93
2023-02-11T16:37:03.338Z,30.55
2023-02-11T16:40:05.877Z,30.75
2023-02-11T16:43:07.569Z,27.33
2023-02-11T16:46:14.359Z,30.15
2023-02-11T16:49:21.506Z,31.03
2023-02-11T16:52:24.280Z,31.33
2023-02-11T16:55:25.908Z,30.85
2023-02-11T16:58:27.534Z,29.55
2023-02-11T17:01:29.325Z,25.15
2023-02-11T17:04:33.683Z,25.80
2023-02-11T17:07:36.019Z,29.27
2023-02-11T17:10:37.906Z,30.90
2023-02-11T17:13:41.599Z,25.85
2023-02-11T17:16:44.063Z,26.15
2023-02-11T17:19:47.817Z,27.13
2023-02-11T17:22:49.940Z,29.58
2023-02-11T17:25:55.993Z,29.08
2023-02-11T17:28:57.617Z,28.80
2023-02-11T17:31:59.469Z,28.27
2023-02-11T17:35:01.121Z,27.03
2023-02-11T17:38:03.142Z,24.92
2023-02-11T17:41:05.435Z,31.67
2023-02-11T17:44:08.544Z,29.83
2023-02-11T17:47:10.162Z,28.17
2023-02-11T17:50:11.897Z,26.87
2023-02-11T17:53:14.018Z,27.88
2023-02-11T17:56:15.916Z,28.33
2023-02-11T17:59:17.660Z,30.42
2023-02-11T18:02:19.423Z,27.85
2023-02-11T18:05:21.192Z,29.00
2023-02-11T18:08:22.801Z,25.27
2023-02-11T18:11:25.245Z,26.83
2023-02-11T18:14:27.104Z,28.17
2023-02-11T18:17:29.187Z,30.63
2023-02-11T18:20:30.938Z,36.17
2023-02-11T18:23:32.529Z,33.92
2023-02-11T18:26:35.140Z,31.27
2023-02-11T18:29:36.860Z,30.17
2023-02-11T18:32:38.490Z,28.30
2023-02-11T18:35:43.709Z,29.30
2023-02-11T18:38:47.812Z,28.73
2023-02-11T18:41:51.004Z,27.83
2023-02-11T18:44:52.737Z,28.50
2023-02-11T18:47:54.576Z,26.55
2023-02-11T18:50:56.495Z,27.80
2023-02-11T18:53:58.606Z,28.80
2023-02-11T18:57:00.363Z,27.42
2023-02-11T19:00:01.962Z,33.97
2023-02-11T19:03:03.640Z,29.70
2023-02-11T19:06:05.528Z,26.57
2023-02-11T19:09:09.931Z,25.65
2023-02-11T19:12:12.024Z,27.58
2023-02-11T19:15:14.423Z,25.13
2023-02-11T19:18:16.593Z,27.80
2023-02-11T19:21:18.448Z,29.93
2023-02-11T19:24:21.332Z,27.23
2023-02-11T19:27:23.092Z,26.85
2023-02-11T19:30:25.769Z,27.90
2023-02-11T19:33:27.448Z,28.63
2023-02-11T19:36:29.284Z,24.30
2023-02-11T19:39:31.437Z,25.77
2023-02-11T19:42:33.059Z,27.48
2023-02-11T19:45:37.626Z,28.45
2023-02-11T19:48:39.275Z,22.65
2023-02-11T19:51:40.922Z,26.67
2023-02-11T19:54:42.564Z,25.50
2023-02-11T19:57:44.384Z,25.88
2023-02-11T20:00:46.010Z,26.40
2023-02-11T20:03:52.624Z,27.15
2023-02-11T20:06:54.238Z,25.03
2023-02-11T20:09:55.852Z,24.65
2023-02-11T20:12:57.655Z,24.85
2023-02-11T20:16:46.865Z,24.35
2023-02-11T20:19:49.649Z,24.63
2023-02-11T20:22:51.814Z,22.87
2023-02-11T20:25:54.162Z,25.48
2023-02-11T20:28:57.854Z,25.67
2023-02-11T20:32:00.239Z,25.27
2023-02-11T20:35:01.970Z,27.25
2023-02-11T20:38:03.627Z,28.80
2023-02-11T20:41:07.776Z,24.73
2023-02-11T20:44:10.774Z,27.30
2023-02-11T20:47:12.548Z,26.40
2023-02-11T20:50:14.175Z,27.58
2023-02-11T20:53:15.769Z,25.97
2023-02-11T20:56:20.283Z,24.38
2023-02-11T20:59:22.591Z,22.42
2023-02-11T21:02:25.014Z,27.08
2023-02-11T21:05:26.765Z,28.98
2023-02-11T21:08:28.433Z,28.00
2023-02-11T21:11:31.122Z,30.77
2023-02-11T21:14:34.110Z,26.65
2023-02-11T21:17:35.701Z,27.27
2023-02-11T21:20:37.382Z,25.58
2023-02-11T21:23:40.274Z,26.30
2023-02-11T21:26:42.259Z,30.15
2023-02-11T21:29:53.786Z,29.02
2023-02-11T21:32:58.430Z,26.58
2023-02-11T21:36:02.857Z,27.02
2023-02-11T21:39:05.699Z,23.40
2023-02-11T21:42:07.299Z,23.52
2023-02-11T21:45:09.789Z,24.50
2023-02-11T21:48:12.196Z,23.23
2023-02-11T21:51:16.359Z,27.15
2023-02-11T21:54:18.868Z,22.13
2023-02-11T21:57:20.533Z,23.90
2023-02-11T22:00:22.357Z,24.08
2023-02-11T22:03:24.030Z,22.88
2023-02-11T22:06:31.200Z,21.77
2023-02-11T22:09:32.964Z,23.13
2023-02-11T22:12:34.850Z,26.73
2023-02-11T22:15:36.466Z,24.48
2023-02-11T22:18:38.755Z,26.58
2023-02-11T22:21:40.789Z,21.85
2023-02-11T22:24:42.812Z,21.10
2023-02-11T22:27:44.553Z,24.75
2023-02-11T22:30:46.296Z,25.38
2023-02-11T22:33:48.529Z,27.92
2023-02-11T22:36:50.181Z,26.35
2023-02-11T22:39:51.743Z,26.73
2023-02-11T22:42:53.354Z,26.77
2023-02-11T22:45:56.470Z,26.33
2023-02-11T22:48:58.333Z,29.13
2023-02-11T22:52:00.200Z,26.60
2023-02-11T22:55:02.114Z,26.20
2023-02-11T22:58:04.127Z,25.38
2023-02-11T23:01:06.514Z,25.77
2023-02-11T23:04:11.141Z,26.83
2023-02-11T23:07:13.313Z,23.48
2023-02-11T23:10:15.074Z,24.37
2023-02-11T23:13:16.679Z,24.02
2023-02-11T23:16:24.666Z,24.60
2023-02-11T23:19:26.275Z,22.77
2023-02-11T23:22:28.403Z,30.65
2023-02-11T23:25:30.562Z,28.27
2023-02-11T23:28:34.455Z,30.75
2023-02-11T23:31:39.797Z,24.75
2023-02-11T23:34:41.660Z,23.60
2023-02-11T23:37:43.236Z,25.35
2023-02-11T23:40:44.834Z,26.93
2023-02-11T23:43:51.113Z,27.15
2023-02-11T23:46:52.869Z,27.45
2023-02-11T23:49:54.481Z,29.88
2023-02-11T23:52:56.162Z,25.88
2023-02-11T23:55:58.245Z,27.53
2023-02-11T23:58:59.856Z,27.92
